Time;durP1;ratioP1;P1;durP2;ratioP2;P2;SDS_P1;SDS_P2;PMS_P1;PMS_P2;Temp;Humidity;BMP_temperature;BMP_pressure;BME280_temperature;BME280_humidity;BME280_pressure;Samples;Min_cycle;Max_cycle;Signal;HPM_P1;HPM_P2
2021/09/12 00:00:54;;;;;;;;;;;;;;;;;;2109873;27;4919;-75
2021/09/12 00:01:55;;;;;;;;;;;;;;;;;;2113828;27;3692;-75
2021/09/12 00:02:55;;;;;;;;;;;;;;;;;;2113777;27;4495;-75
2021/09/12 00:03:56;;;;;;;;;;;;;;;;;;2113522;27;1389;-75
2021/09/12 00:04:56;;;;;;;;;;;;;;;;;;2111496;27;5255;-75
2021/09/12 00:05:58;;;;;;;;;;;;;;;;;;2112924;27;4123;-75
2021/09/12 00:06:58;;;;;;;;;;;;;;;;;;2110144;27;5347;-75
2021/09/12 00:07:59;;;;;;;;;;;;;;;;;;2113985;27;3918;-75
2021/09/12 00:09:00;;;;;;;;;;;;;;;;;;2114315;27;1931;-76
2021/09/12 00:10:01;;;;;;;;;;;;;;;;;;2112093;27;5569;-75
2021/09/12 00:11:01;;;;;;;;;;;;;;;;;;2113213;27;4685;-75
2021/09/12 00:12:02;;;;;;;;;;;;;;;;;;2114904;27;1184;-75
2021/09/12 00:13:03;;;;;;;;;;;;;;;;;;2114574;27;1203;-75
2021/09/12 00:14:04;;;;;;;;;;;;;;;;;;2110917;27;3151;-75
2021/09/12 00:15:04;;;;;;;;;;;;;;;;;;2113995;27;3878;-75
2021/09/12 00:16:05;;;;;;;;;;;;;;;;;;2114104;27;1178;-75
2021/09/12 00:17:06;;;;;;;;;;;;;;;;;;2114234;27;1073;-75
2021/09/12 00:18:07;;;;;;;;;;;;;;;;;;2113205;27;5591;-75
2021/09/12 00:19:07;;;;;;;;;;;;;;;;;;2112895;27;3674;-75
2021/09/12 00:20:10;;;;;;;;;;;;;;;;;;2114818;27;1212;-75
2021/09/12 00:21:10;;;;;;;;;;;;;;;;;;2113740;27;1228;-75
2021/09/12 00:22:11;;;;;;;;;;;;;;;;;;2113915;27;4165;-75
2021/09/12 00:23:12;;;;;;;;;;;;;;;;;;2113376;27;4248;-75
2021/09/12 00:24:12;;;;;;;;;;;;;;;;;;2113942;27;3741;-75
2021/09/12 00:25:13;;;;;;;;;;;;;;;;;;2112352;27;5301;-75
2021/09/12 00:26:13;;;;;;;;;;;;;;;;;;2111954;27;5134;-75
2021/09/12 00:27:14;;;;;;;;;;;;;;;;;;2113226;27;3705;-75
2021/09/12 00:28:14;;;;;;;;;;;;;;;;;;2113024;27;4317;-75
2021/09/12 00:29:16;;;;;;;;;;;;;;;;;;2114943;27;1992;-75
2021/09/12 00:30:17;;;;;;;;;;;;;;;;;;2113660;27;997;-75
2021/09/12 00:31:18;;;;;;;;;;;;;;;;;;2112887;27;4516;-75
2021/09/12 00:32:18;;;;;;;;;;;;;;;;;;2114553;27;1107;-75
2021/09/12 00:33:19;;;;;;;;;;;;;;;;;;2111781;27;5228;-75
2021/09/12 00:34:19;;;;;;;;;;;;;;;;;;2112633;27;5320;-75
2021/09/12 00:35:20;;;;;;;;;;;;;;;;;;2112294;27;4019;-75
2021/09/12 00:36:20;;;;;;;;;;;;;;;;;;2106113;27;3640;-75
2021/09/12 00:37:21;;;;;;;;;;;;;;;;;;2114725;27;1016;-75
2021/09/12 00:38:23;;;;;;;;;;;;;;;;;;2113424;27;2123;-75
2021/09/12 00:39:24;;;;;;;;;;;;;;;;;;2112287;27;3190;-75
2021/09/12 00:40:24;;;;;;;;;;;;;;;;;;2113549;27;1068;-75
2021/09/12 00:41:25;;;;;;;;;;;;;;;;;;2109445;27;5227;-75
2021/09/12 00:42:25;;;;;;;;;;;;;;;;;;2112648;27;4632;-75
2021/09/12 00:43:27;;;;;;;;;;;;;;;;;;2112735;27;1282;-75
2021/09/12 00:44:28;;;;;;;;;;;;;;;;;;2113375;27;1053;-75
2021/09/12 00:45:29;;;;;;;;;;;;;;;;;;2112560;27;3593;-75
2021/09/12 00:46:31;;;;;;;;;;;;;;;;;;2113988;27;1028;-75
2021/09/12 00:47:31;;;;;;;;;;;;;;;;;;2113507;27;1143;-75
2021/09/12 00:48:32;;;;;;;;;;;;;;;;;;2114477;27;1674;-75
2021/09/12 00:49:32;;;;;;;;;;;;;;;;;;2110304;27;5324;-75
2021/09/12 00:50:33;;;;;;;;;;;;;;;;;;2113198;27;4581;-75
2021/09/12 00:51:33;;;;;;;;;;;;;;;;;;2112883;27;1100;-75
2021/09/12 00:52:34;;;;;;;;;;;;;;;;;;2113996;27;1107;-75
2021/09/12 00:53:35;;;;;;;;;;;;;;;;;;2110273;27;3776;-75
2021/09/12 00:54:36;;;;;;;;;;;;;;;;;;2114189;27;2296;-75
2021/09/12 00:55:37;;;;;;;;;;;;;;;;;;2112163;27;4462;-75
2021/09/12 00:56:37;;;;;;;;;;;;;;;;;;2112856;27;1180;-75
2021/09/12 00:57:38;;;;;;;;;;;;;;;;;;2111614;27;5259;-75
2021/09/12 00:58:38;;;;;;;;;;;;;;;;;;2113041;27;5093;-75
2021/09/12 00:59:39;;;;;;;;;;;;;;;;;;2113143;27;1235;-75
2021/09/12 01:00:39;;;;;;;;;;;;;;;;;;2114313;27;968;-75
2021/09/12 01:01:40;;;;;;;;;;;;;;;;;;2113029;27;1162;-76
2021/09/12 01:02:40;;;;;;;;;;;;;;;;;;2114110;27;2759;-75
2021/09/12 01:03:42;;;;;;;;;;;;;;;;;;2112660;27;1387;-75
2021/09/12 01:04:42;;;;;;;;;;;;;;;;;;2114097;27;1136;-75
2021/09/12 01:05:43;;;;;;;;;;;;;;;;;;2110186;27;5167;-75
2021/09/12 01:06:43;;;;;;;;;;;;;;;;;;2112673;27;5314;-75
2021/09/12 01:07:46;;;;;;;;;;;;;;;;;;2114173;27;5132;-75
2021/09/12 01:08:46;;;;;;;;;;;;;;;;;;2113854;27;2839;-75
2021/09/12 01:09:47;;;;;;;;;;;;;;;;;;2114027;27;1913;-75
2021/09/12 01:10:48;;;;;;;;;;;;;;;;;;2112314;27;1040;-75
2021/09/12 01:11:49;;;;;;;;;;;;;;;;;;2111163;27;4112;-75
2021/09/12 01:12:50;;;;;;;;;;;;;;;;;;2113758;27;4189;-75
2021/09/12 01:13:50;;;;;;;;;;;;;;;;;;2109523;27;5504;-75
2021/09/12 01:14:51;;;;;;;;;;;;;;;;;;2113389;27;5754;-75
2021/09/12 01:15:52;;;;;;;;;;;;;;;;;;2111143;27;4637;-75
2021/09/12 01:16:53;;;;;;;;;;;;;;;;;;2113549;27;1083;-76
2021/09/12 01:17:54;;;;;;;;;;;;;;;;;;2113248;27;4438;-75
2021/09/12 01:18:55;;;;;;;;;;;;;;;;;;2113551;27;1343;-75
2021/09/12 01:19:57;;;;;;;;;;;;;;;;;;2114046;27;1377;-75
2021/09/12 01:20:57;;;;;;;;;;;;;;;;;;2112796;27;2789;-75
2021/09/12 01:21:58;;;;;;;;;;;;;;;;;;2111853;27;5518;-75
2021/09/12 01:22:58;;;;;;;;;;;;;;;;;;2112288;27;4174;-75
2021/09/12 01:23:59;;;;;;;;;;;;;;;;;;2111640;27;4041;-75
2021/09/12 01:24:59;;;;;;;;;;;;;;;;;;2110693;27;4615;-76
2021/09/12 01:26:00;;;;;;;;;;;;;;;;;;2113229;27;2674;-75
2021/09/12 01:27:01;;;;;;;;;;;;;;;;;;2111966;27;3586;-76
2021/09/12 01:28:02;;;;;;;;;;;;;;;;;;2111264;27;3964;-75
2021/09/12 01:29:02;;;;;;;;;;;;;;;;;;2113575;27;1052;-75
2021/09/12 01:30:03;;;;;;;;;;;;;;;;;;2113751;27;3892;-75
2021/09/12 01:31:03;;;;;;;;;;;;;;;;;;2112470;27;1005;-75
2021/09/12 01:32:04;;;;;;;;;;;;;;;;;;2106241;27;5634;-75
2021/09/12 01:33:04;;;;;;;;;;;;;;;;;;2112668;27;4592;-75
2021/09/12 01:34:05;;;;;;;;;;;;;;;;;;2113085;27;1325;-75
2021/09/12 01:35:06;;;;;;;;;;;;;;;;;;2109861;27;3393;-75
2021/09/12 01:36:06;;;;;;;;;;;;;;;;;;2112500;27;3298;-75
2021/09/12 01:37:08;;;;;;;;;;;;;;;;;;2113720;27;925;-75
2021/09/12 01:38:08;;;;;;;;;;;;;;;;;;2113736;27;1262;-75
2021/09/12 01:39:09;;;;;;;;;;;;;;;;;;2111144;27;2319;-75
2021/09/12 01:40:10;;;;;;;;;;;;;;;;;;2112602;27;6228;-75
2021/09/12 01:41:10;;;;;;;;;;;;;;;;;;2111385;27;4292;-75
2021/09/12 01:42:11;;;;;;;;;;;;;;;;;;2112337;27;3383;-75
2021/09/12 01:43:11;;;;;;;;;;;;;;;;;;2111550;27;3600;-75
2021/09/12 01:44:12;;;;;;;;;;;;;;;;;;2111874;27;3818;-75
2021/09/12 01:45:12;;;;;;;;;;;;;;;;;;2109413;27;5148;-75
2021/09/12 01:46:14;;;;;;;;;;;;;;;;;;2112809;27;1437;-75
2021/09/12 01:47:14;;;;;;;;;;;;;;;;;;2112181;27;5338;-75
2021/09/12 01:48:15;;;;;;;;;;;;;;;;;;2111013;27;5164;-75
2021/09/12 01:49:15;;;;;;;;;;;;;;;;;;2110853;27;4367;-75
2021/09/12 01:50:17;;;;;;;;;;;;;;;;;;2112051;27;4473;-75
2021/09/12 01:51:18;;;;;;;;;;;;;;;;;;2111662;27;3586;-75
2021/09/12 01:52:19;;;;;;;;;;;;;;;;;;2112559;27;4084;-75
2021/09/12 01:53:19;;;;;;;;;;;;;;;;;;2112235;27;1093;-75
2021/09/12 01:54:20;;;;;;;;;;;;;;;;;;2112674;27;2951;-75
2021/09/12 01:55:20;;;;;;;;;;;;;;;;;;2111624;27;5342;-75
2021/09/12 01:56:22;;;;;;;;;;;;;;;;;;2111976;27;5194;-75
2021/09/12 01:57:22;;;;;;;;;;;;;;;;;;2112570;27;3376;-75
2021/09/12 01:58:25;;;;;;;;;;;;;;;;;;2113503;27;1369;-75
2021/09/12 01:59:25;;;;;;;;;;;;;;;;;;2112351;27;3286;-75
2021/09/12 02:00:26;;;;;;;;;;;;;;;;;;2113322;27;1060;-75
2021/09/12 02:01:26;;;;;;;;;;;;;;;;;;2113401;27;1778;-75
2021/09/12 02:02:27;;;;;;;;;;;;;;;;;;2111450;27;4013;-75
2021/09/12 02:03:27;;;;;;;;;;;;;;;;;;2111470;27;5349;-75
2021/09/12 02:04:28;;;;;;;;;;;;;;;;;;2112604;27;4828;-75
2021/09/12 02:05:29;;;;;;;;;;;;;;;;;;2110788;27;3233;-75
2021/09/12 02:06:30;;;;;;;;;;;;;;;;;;2106038;27;1455;-75
2021/09/12 02:07:30;;;;;;;;;;;;;;;;;;2112708;27;1111;-75
2021/09/12 02:08:31;;;;;;;;;;;;;;;;;;2112764;27;1236;-75
2021/09/12 02:09:32;;;;;;;;;;;;;;;;;;2113133;27;1905;-75
2021/09/12 02:10:32;;;;;;;;;;;;;;;;;;2110913;27;2829;-75
2021/09/12 02:11:33;;;;;;;;;;;;;;;;;;2111675;27;5164;-75
2021/09/12 02:12:33;;;;;;;;;;;;;;;;;;2113377;27;5319;-75
2021/09/12 02:13:34;;;;;;;;;;;;;;;;;;2110845;27;4132;-75
2021/09/12 02:14:34;;;;;;;;;;;;;;;;;;2112860;27;3313;-75
2021/09/12 02:15:36;;;;;;;;;;;;;;;;;;2112057;27;3800;-75
2021/09/12 02:16:36;;;;;;;;;;;;;;;;;;2112415;27;1021;-75
2021/09/12 02:17:37;;;;;;;;;;;;;;;;;;2111669;27;4234;-75
2021/09/12 02:18:37;;;;;;;;;;;;;;;;;;2110441;27;4158;-75
2021/09/12 02:19:38;;;;;;;;;;;;;;;;;;2111514;27;5645;-75
2021/09/12 02:20:38;;;;;;;;;;;;;;;;;;2113374;27;5530;-75
2021/09/12 02:21:39;;;;;;;;;;;;;;;;;;2111434;27;5427;-75
2021/09/12 02:22:39;;;;;;;;;;;;;;;;;;2112508;27;3602;-75
2021/09/12 02:23:40;;;;;;;;;;;;;;;;;;2112014;27;1140;-75
2021/09/12 02:24:40;;;;;;;;;;;;;;;;;;2109145;27;1299;-75
2021/09/12 02:25:42;;;;;;;;;;;;;;;;;;2108823;27;3219;-75
2021/09/12 02:26:42;;;;;;;;;;;;;;;;;;2112164;27;1068;-75
2021/09/12 02:27:43;;;;;;;;;;;;;;;;;;2111248;27;5555;-75
2021/09/12 02:28:43;;;;;;;;;;;;;;;;;;2112834;27;5463;-75
2021/09/12 02:29:44;;;;;;;;;;;;;;;;;;2113555;27;5193;-75
2021/09/12 02:30:44;;;;;;;;;;;;;;;;;;2114173;27;3184;-75
2021/09/12 02:31:45;;;;;;;;;;;;;;;;;;2113543;27;1046;-75
2021/09/12 02:32:45;;;;;;;;;;;;;;;;;;2113320;27;1064;-75
2021/09/12 02:33:49;;;;;;;;;;;;;;;;;;2111514;27;2890;-75
2021/09/12 02:34:49;;;;;;;;;;;;;;;;;;2113198;27;2238;-75
2021/09/12 02:35:50;;;;;;;;;;;;;;;;;;2110892;27;2957;-75
2021/09/12 02:36:50;;;;;;;;;;;;;;;;;;2111891;27;4380;-75
2021/09/12 02:37:51;;;;;;;;;;;;;;;;;;2112457;27;2818;-75
2021/09/12 02:38:51;;;;;;;;;;;;;;;;;;2111896;27;4100;-75
2021/09/12 02:39:54;;;;;;;;;;;;;;;;;;2110852;27;4699;-75
2021/09/12 02:40:54;;;;;;;;;;;;;;;;;;2112079;27;2943;-75
2021/09/12 02:41:55;;;;;;;;;;;;;;;;;;2111429;27;4768;-75
2021/09/12 02:42:55;;;;;;;;;;;;;;;;;;2113300;27;4889;-75
2021/09/12 02:43:56;;;;;;;;;;;;;;;;;;2110898;27;3728;-75
2021/09/12 02:45:05;;;;;;;;;;;;;;;;;;2109931;27;4157;-75
2021/09/12 02:46:06;;;;;;;;;;;;;;;;;;2108922;27;4838;-75
2021/09/12 02:47:06;;;;;;;;;;;;;;;;;;2112264;27;4742;-75
2021/09/12 02:48:07;;;;;;;;;;;;;;;;;;2112706;27;4913;-75
2021/09/12 02:49:07;;;;;;;;;;;;;;;;;;2113800;27;1033;-75
2021/09/12 02:50:09;;;;;;;;;;;;;;;;;;2111486;27;4488;-75
2021/09/12 02:51:09;;;;;;;;;;;;;;;;;;2110926;27;4754;-75
2021/09/12 02:52:10;;;;;;;;;;;;;;;;;;2111987;27;2916;-75
2021/09/12 02:53:10;;;;;;;;;;;;;;;;;;2110225;27;4423;-75
2021/09/12 02:54:11;;;;;;;;;;;;;;;;;;2112199;27;2210;-75
2021/09/12 02:55:11;;;;;;;;;;;;;;;;;;2111651;27;3430;-75
2021/09/12 02:56:12;;;;;;;;;;;;;;;;;;2111241;27;3015;-75
2021/09/12 02:57:12;;;;;;;;;;;;;;;;;;2113380;27;1735;-75
2021/09/12 02:58:13;;;;;;;;;;;;;;;;;;2110963;27;4654;-75
2021/09/12 02:59:14;;;;;;;;;;;;;;;;;;2111273;27;4448;-75
2021/09/12 03:00:15;;;;;;;;;;;;;;;;;;2110492;27;4871;-75
2021/09/12 03:01:15;;;;;;;;;;;;;;;;;;2112326;27;1096;-75
2021/09/12 03:02:16;;;;;;;;;;;;;;;;;;2110893;27;4966;-75
2021/09/12 03:03:17;;;;;;;;;;;;;;;;;;2109141;27;4403;-75
2021/09/12 03:04:17;;;;;;;;;;;;;;;;;;2113008;27;1112;-75
2021/09/12 03:05:18;;;;;;;;;;;;;;;;;;2111281;27;3487;-76
2021/09/12 03:06:18;;;;;;;;;;;;;;;;;;2112911;27;1084;-75
2021/09/12 03:07:20;;;;;;;;;;;;;;;;;;2113274;27;1368;-75
2021/09/12 03:08:20;;;;;;;;;;;;;;;;;;2110315;27;3129;-75
2021/09/12 03:09:21;;;;;;;;;;;;;;;;;;2110679;27;3838;-76
2021/09/12 03:10:21;;;;;;;;;;;;;;;;;;2110483;27;4617;-75
2021/09/12 03:11:22;;;;;;;;;;;;;;;;;;2112282;27;3597;-75
2021/09/12 03:12:22;;;;;;;;;;;;;;;;;;2112860;27;1033;-76
2021/09/12 03:13:23;;;;;;;;;;;;;;;;;;2110335;27;3503;-76
2021/09/12 03:14:23;;;;;;;;;;;;;;;;;;2111159;27;4541;-75
2021/09/12 03:15:24;;;;;;;;;;;;;;;;;;2108857;27;3856;-75
2021/09/12 03:16:25;;;;;;;;;;;;;;;;;;2112288;27;3460;-75
2021/09/12 03:17:26;;;;;;;;;;;;;;;;;;2112528;27;2269;-75
2021/09/12 03:18:26;;;;;;;;;;;;;;;;;;2112323;27;4647;-75
2021/09/12 03:19:27;;;;;;;;;;;;;;;;;;2111662;27;3644;-75
2021/09/12 03:20:27;;;;;;;;;;;;;;;;;;2111182;27;4483;-75
2021/09/12 03:21:28;;;;;;;;;;;;;;;;;;2111119;27;4378;-76
2021/09/12 03:22:28;;;;;;;;;;;;;;;;;;2112764;27;1187;-75
2021/09/12 03:23:29;;;;;;;;;;;;;;;;;;2109055;27;3966;-75
2021/09/12 03:24:29;;;;;;;;;;;;;;;;;;2113295;27;1515;-75
2021/09/12 03:25:30;;;;;;;;;;;;;;;;;;2109511;27;4139;-75
2021/09/12 03:26:31;;;;;;;;;;;;;;;;;;2111524;27;5258;-75
2021/09/12 03:27:32;;;;;;;;;;;;;;;;;;2109582;27;5421;-75
2021/09/12 03:28:32;;;;;;;;;;;;;;;;;;2112397;27;4486;-75
2021/09/12 03:29:33;;;;;;;;;;;;;;;;;;2110992;27;4453;-76
2021/09/12 03:30:33;;;;;;;;;;;;;;;;;;2112043;27;3869;-75
2021/09/12 03:31:34;;;;;;;;;;;;;;;;;;2112596;27;1083;-75
2021/09/12 03:32:34;;;;;;;;;;;;;;;;;;2113110;27;1119;-75
2021/09/12 03:33:35;;;;;;;;;;;;;;;;;;2109651;27;4647;-75
2021/09/12 03:34:35;;;;;;;;;;;;;;;;;;2113139;27;1044;-75
2021/09/12 03:35:36;;;;;;;;;;;;;;;;;;2109553;27;3685;-75
2021/09/12 03:36:38;;;;;;;;;;;;;;;;;;2108572;27;1322;-75
2021/09/12 03:37:38;;;;;;;;;;;;;;;;;;2111233;27;3067;-75
2021/09/12 03:38:39;;;;;;;;;;;;;;;;;;2112176;27;1239;-75
2021/09/12 03:39:39;;;;;;;;;;;;;;;;;;2111564;28;5362;-75
2021/09/12 03:40:40;;;;;;;;;;;;;;;;;;2108084;27;5484;-75
2021/09/12 03:42:40;;;;;;;;;;;;;;;;;;2124253;27;3672;-75
2021/09/12 03:43:40;;;;;;;;;;;;;;;;;;2119022;27;1274;-75
2021/09/12 03:44:44;;;;;;;;;;;;;;;;;;2120639;27;1200;-75
2021/09/12 03:45:44;;;;;;;;;;;;;;;;;;2119084;27;4395;-74
2021/09/12 03:46:45;;;;;;;;;;;;;;;;;;2120045;27;1220;-75
2021/09/12 03:47:45;;;;;;;;;;;;;;;;;;2119032;27;5194;-75
2021/09/12 03:48:46;;;;;;;;;;;;;;;;;;2113178;27;5313;-75
2021/09/12 03:49:46;;;;;;;;;;;;;;;;;;2111657;27;5072;-75
2021/09/12 03:50:47;;;;;;;;;;;;;;;;;;2110980;27;4268;-75
2021/09/12 03:51:47;;;;;;;;;;;;;;;;;;2111568;27;1029;-74
2021/09/12 03:52:48;;;;;;;;;;;;;;;;;;2112272;27;1092;-75
2021/09/12 03:53:49;;;;;;;;;;;;;;;;;;2110849;27;1743;-75
2021/09/12 03:54:50;;;;;;;;;;;;;;;;;;2111250;27;1530;-75
2021/09/12 03:55:50;;;;;;;;;;;;;;;;;;2109501;27;5613;-75
2021/09/12 03:56:51;;;;;;;;;;;;;;;;;;2106551;27;5102;-75
2021/09/12 03:57:51;;;;;;;;;;;;;;;;;;2110858;27;3812;-75
2021/09/12 03:58:52;;;;;;;;;;;;;;;;;;2108779;27;3660;-75
2021/09/12 03:59:52;;;;;;;;;;;;;;;;;;2110526;27;4550;-74
2021/09/12 04:00:53;;;;;;;;;;;;;;;;;;2111251;27;1049;-75
2021/09/12 04:01:53;;;;;;;;;;;;;;;;;;2110123;27;3882;-75
2021/09/12 04:02:54;;;;;;;;;;;;;;;;;;2110061;27;4646;-74
2021/09/12 04:03:55;;;;;;;;;;;;;;;;;;2109463;27;5547;-75
2021/09/12 04:04:59;;;;;;;;;;;;;;;;;;2109744;27;5225;-75
2021/09/12 04:05:59;;;;;;;;;;;;;;;;;;2111193;27;3402;-75
2021/09/12 04:07:00;;;;;;;;;;;;;;;;;;2111483;27;1085;-75
2021/09/12 04:08:00;;;;;;;;;;;;;;;;;;2111387;27;3093;-75
2021/09/12 04:09:01;;;;;;;;;;;;;;;;;;2108401;27;1471;-75
2021/09/12 04:10:01;;;;;;;;;;;;;;;;;;2111341;27;1096;-74
2021/09/12 04:11:03;;;;;;;;;;;;;;;;;;2108854;27;1087;-75
2021/09/12 04:12:03;;;;;;;;;;;;;;;;;;2110528;27;5412;-75
2021/09/12 04:13:04;;;;;;;;;;;;;;;;;;2110698;27;5309;-75
2021/09/12 04:14:04;;;;;;;;;;;;;;;;;;2109886;27;1072;-75
2021/09/12 04:15:05;;;;;;;;;;;;;;;;;;2110976;27;2596;-75
2021/09/12 04:16:05;;;;;;;;;;;;;;;;;;2111105;27;1065;-75
2021/09/12 04:17:06;;;;;;;;;;;;;;;;;;2109064;27;4563;-75
2021/09/12 04:18:06;;;;;;;;;;;;;;;;;;2110592;27;5443;-75
2021/09/12 04:19:07;;;;;;;;;;;;;;;;;;2109218;27;1028;-75
2021/09/12 04:20:07;;;;;;;;;;;;;;;;;;2108349;27;5744;-75
2021/09/12 04:21:09;;;;;;;;;;;;;;;;;;2106432;27;5098;-75
2021/09/12 04:22:09;;;;;;;;;;;;;;;;;;2106531;27;5025;-75
2021/09/12 04:23:10;;;;;;;;;;;;;;;;;;2110129;27;4952;-75
2021/09/12 04:24:10;;;;;;;;;;;;;;;;;;2109099;27;4719;-75
2021/09/12 04:25:11;;;;;;;;;;;;;;;;;;2110042;27;4723;-75
2021/09/12 04:26:11;;;;;;;;;;;;;;;;;;2109327;27;4206;-75
2021/09/12 04:27:12;;;;;;;;;;;;;;;;;;2110095;27;3510;-75
2021/09/12 04:28:12;;;;;;;;;;;;;;;;;;2109320;27;5246;-75
2021/09/12 04:29:14;;;;;;;;;;;;;;;;;;2110638;27;5331;-75
2021/09/12 04:30:15;;;;;;;;;;;;;;;;;;2109461;27;4601;-75
2021/09/12 04:31:16;;;;;;;;;;;;;;;;;;2111155;27;1052;-75
2021/09/12 04:32:17;;;;;;;;;;;;;;;;;;2111707;27;1016;-75
2021/09/12 04:33:17;;;;;;;;;;;;;;;;;;2108529;27;4706;-75
2021/09/12 04:34:18;;;;;;;;;;;;;;;;;;2110379;27;4606;-75
2021/09/12 04:35:18;;;;;;;;;;;;;;;;;;2109429;27;3900;-75
2021/09/12 04:36:19;;;;;;;;;;;;;;;;;;2109138;27;5551;-75
2021/09/12 04:37:19;;;;;;;;;;;;;;;;;;2109132;27;4714;-75
2021/09/12 04:38:20;;;;;;;;;;;;;;;;;;2110546;27;1318;-75
2021/09/12 04:39:21;;;;;;;;;;;;;;;;;;2110121;27;3967;-75
2021/09/12 04:40:22;;;;;;;;;;;;;;;;;;2109928;27;4924;-75
2021/09/12 04:41:22;;;;;;;;;;;;;;;;;;2109879;27;1196;-75
2021/09/12 04:42:23;;;;;;;;;;;;;;;;;;2110588;27;1909;-75
2021/09/12 04:43:24;;;;;;;;;;;;;;;;;;2109092;27;1168;-75
2021/09/12 04:44:24;;;;;;;;;;;;;;;;;;2108074;27;5279;-75
2021/09/12 04:45:25;;;;;;;;;;;;;;;;;;2107090;27;5028;-75
2021/09/12 04:46:25;;;;;;;;;;;;;;;;;;2109772;27;4504;-75
2021/09/12 04:47:26;;;;;;;;;;;;;;;;;;2105492;27;4572;-75
2021/09/12 04:48:26;;;;;;;;;;;;;;;;;;2110812;27;1370;-75
2021/09/12 04:49:28;;;;;;;;;;;;;;;;;;2110402;27;1072;-75
2021/09/12 04:50:28;;;;;;;;;;;;;;;;;;2109408;27;4757;-75
2021/09/12 04:51:29;;;;;;;;;;;;;;;;;;2109841;27;4692;-75
2021/09/12 04:52:29;;;;;;;;;;;;;;;;;;2109571;27;5422;-75
2021/09/12 04:53:30;;;;;;;;;;;;;;;;;;2103519;27;1268;-75
2021/09/12 04:54:30;;;;;;;;;;;;;;;;;;2106338;28;5005;-75
2021/09/12 04:55:31;;;;;;;;;;;;;;;;;;2101893;28;4749;-75
2021/09/12 04:56:31;;;;;;;;;;;;;;;;;;2103689;28;4770;-75
2021/09/12 04:57:32;;;;;;;;;;;;;;;;;;2105116;28;1490;-75
2021/09/12 04:58:33;;;;;;;;;;;;;;;;;;2105348;28;1291;-75
2021/09/12 04:59:36;;;;;;;;;;;;;;;;;;2103774;28;3898;-74
2021/09/12 05:00:36;;;;;;;;;;;;;;;;;;2103122;28;4991;-75
2021/09/12 05:01:38;;;;;;;;;;;;;;;;;;2102297;28;5304;-75
2021/09/12 05:02:38;;;;;;;;;;;;;;;;;;2099507;28;4781;-75
2021/09/12 05:03:39;;;;;;;;;;;;;;;;;;2099263;28;4682;-75
2021/09/12 05:04:39;;;;;;;;;;;;;;;;;;2098718;28;5621;-75
2021/09/12 05:05:40;;;;;;;;;;;;;;;;;;2102814;27;4583;-75
2021/09/12 05:06:40;;;;;;;;;;;;;;;;;;2100714;28;4236;-75
2021/09/12 05:07:41;;;;;;;;;;;;;;;;;;2102525;28;5201;-75
2021/09/12 05:08:41;;;;;;;;;;;;;;;;;;2103489;28;4775;-75
2021/09/12 05:09:42;;;;;;;;;;;;;;;;;;2104336;28;5255;-75
2021/09/12 05:10:43;;;;;;;;;;;;;;;;;;2105225;28;2653;-75
2021/09/12 05:11:44;;;;;;;;;;;;;;;;;;2104774;28;4903;-75
2021/09/12 05:12:45;;;;;;;;;;;;;;;;;;2104997;28;4709;-75
2021/09/12 05:13:45;;;;;;;;;;;;;;;;;;2101692;28;4572;-75
2021/09/12 05:14:46;;;;;;;;;;;;;;;;;;2101608;27;5620;-75
2021/09/12 05:15:49;;;;;;;;;;;;;;;;;;2103312;28;2992;-75
2021/09/12 05:16:49;;;;;;;;;;;;;;;;;;2105377;28;2252;-75
2021/09/12 05:17:50;;;;;;;;;;;;;;;;;;2106355;28;3160;-75
2021/09/12 05:18:51;;;;;;;;;;;;;;;;;;2105226;28;1380;-75
2021/09/12 05:19:52;;;;;;;;;;;;;;;;;;2105033;28;3953;-75
2021/09/12 05:20:52;;;;;;;;;;;;;;;;;;2105895;28;1072;-75
2021/09/12 05:21:54;;;;;;;;;;;;;;;;;;2105499;28;2015;-75
2021/09/12 05:22:55;;;;;;;;;;;;;;;;;;2104595;27;1057;-75
2021/09/12 05:23:56;;;;;;;;;;;;;;;;;;2104403;28;3822;-75
2021/09/12 05:24:56;;;;;;;;;;;;;;;;;;2104762;28;4154;-75
2021/09/12 05:25:57;;;;;;;;;;;;;;;;;;2104385;28;1080;-74
2021/09/12 05:26:57;;;;;;;;;;;;;;;;;;2104438;28;1763;-75
2021/09/12 05:27:58;;;;;;;;;;;;;;;;;;2106191;28;2288;-75
2021/09/12 05:28:58;;;;;;;;;;;;;;;;;;2104818;28;4627;-74
2021/09/12 05:30:00;;;;;;;;;;;;;;;;;;2103770;28;4728;-75
2021/09/12 05:31:00;;;;;;;;;;;;;;;;;;2102956;28;5100;-75
2021/09/12 05:32:01;;;;;;;;;;;;;;;;;;2105374;28;4777;-75
2021/09/12 05:33:01;;;;;;;;;;;;;;;;;;2100772;28;3824;-75
2021/09/12 05:34:02;;;;;;;;;;;;;;;;;;2102448;28;4035;-75
2021/09/12 05:35:02;;;;;;;;;;;;;;;;;;2096757;28;4670;-75
2021/09/12 05:36:03;;;;;;;;;;;;;;;;;;2097751;28;2503;-75
2021/09/12 05:37:03;;;;;;;;;;;;;;;;;;2097239;28;4828;-75
2021/09/12 05:38:05;;;;;;;;;;;;;;;;;;2105811;28;1373;-75
2021/09/12 05:39:05;;;;;;;;;;;;;;;;;;2103086;28;3596;-75
2021/09/12 05:40:06;;;;;;;;;;;;;;;;;;2105566;27;3328;-75
2021/09/12 05:41:06;;;;;;;;;;;;;;;;;;2104667;28;1041;-75
2021/09/12 05:42:07;;;;;;;;;;;;;;;;;;2104004;28;3469;-75
2021/09/12 05:43:07;;;;;;;;;;;;;;;;;;2102941;28;4373;-75
2021/09/12 05:44:08;;;;;;;;;;;;;;;;;;2104784;28;1052;-75
2021/09/12 05:45:09;;;;;;;;;;;;;;;;;;2102905;28;3770;-75
2021/09/12 05:46:10;;;;;;;;;;;;;;;;;;2100727;28;1458;-75
2021/09/12 05:47:10;;;;;;;;;;;;;;;;;;2104732;28;2109;-75
2021/09/12 05:48:11;;;;;;;;;;;;;;;;;;2104127;28;1346;-75
2021/09/12 05:49:11;;;;;;;;;;;;;;;;;;2102024;28;3319;-75
2021/09/12 05:50:12;;;;;;;;;;;;;;;;;;2104053;28;4460;-75
2021/09/12 05:51:12;;;;;;;;;;;;;;;;;;2104456;28;3392;-75
2021/09/12 05:52:13;;;;;;;;;;;;;;;;;;2104989;28;4717;-75
2021/09/12 05:53:14;;;;;;;;;;;;;;;;;;2101935;28;4244;-75
2021/09/12 05:54:16;;;;;;;;;;;;;;;;;;2104675;28;1522;-75
2021/09/12 05:55:16;;;;;;;;;;;;;;;;;;2103479;28;4241;-75
2021/09/12 05:56:17;;;;;;;;;;;;;;;;;;2101871;28;4117;-75
2021/09/12 05:57:17;;;;;;;;;;;;;;;;;;2103302;28;4819;-75
2021/09/12 05:58:18;;;;;;;;;;;;;;;;;;2103497;28;4932;-75
2021/09/12 05:59:18;;;;;;;;;;;;;;;;;;2102587;28;3252;-75
2021/09/12 06:00:20;;;;;;;;;;;;;;;;;;2105529;28;1011;-75
2021/09/12 06:01:20;;;;;;;;;;;;;;;;;;2100792;28;3156;-75
2021/09/12 06:02:21;;;;;;;;;;;;;;;;;;2104977;28;2494;-75
2021/09/12 06:03:21;;;;;;;;;;;;;;;;;;2101741;28;3859;-75
2021/09/12 06:04:23;;;;;;;;;;;;;;;;;;2103084;28;2526;-75
2021/09/12 06:05:23;;;;;;;;;;;;;;;;;;2100170;28;3729;-75
2021/09/12 06:06:24;;;;;;;;;;;;;;;;;;2101877;28;5103;-75
2021/09/12 06:07:25;;;;;;;;;;;;;;;;;;2104272;28;2988;-75
2021/09/12 06:08:26;;;;;;;;;;;;;;;;;;2103682;28;3072;-75
2021/09/12 06:09:26;;;;;;;;;;;;;;;;;;2103650;28;3130;-75
2021/09/12 06:10:27;;;;;;;;;;;;;;;;;;2104587;28;1088;-75
2021/09/12 06:11:27;;;;;;;;;;;;;;;;;;2102938;28;2617;-75
2021/09/12 06:12:28;;;;;;;;;;;;;;;;;;2105448;27;1041;-75
2021/09/12 06:13:28;;;;;;;;;;;;;;;;;;2100295;28;4312;-75
2021/09/12 06:14:29;;;;;;;;;;;;;;;;;;2102748;28;3099;-75
2021/09/12 06:15:33;;;;;;;;;;;;;;;;;;2102467;28;3925;-75
2021/09/12 06:16:33;;;;;;;;;;;;;;;;;;2102146;28;3785;-75
2021/09/12 06:17:35;;;;;;;;;;;;;;;;;;2103626;28;3224;-75
2021/09/12 06:18:35;;;;;;;;;;;;;;;;;;2100676;28;3866;-75
2021/09/12 06:19:37;;;;;;;;;;;;;;;;;;2104451;28;2555;-75
2021/09/12 06:20:38;;;;;;;;;;;;;;;;;;2103524;28;2615;-74
2021/09/12 06:21:39;;;;;;;;;;;;;;;;;;2102345;28;3273;-75
2021/09/12 06:22:48;;;;;;;;;;;;;;;;;;2104547;28;2139;-75
2021/09/12 06:23:49;;;;;;;;;;;;;;;;;;2101023;28;3472;-75
2021/09/12 06:24:49;;;;;;;;;;;;;;;;;;2102789;28;3194;-75
2021/09/12 06:25:50;;;;;;;;;;;;;;;;;;2102503;28;3507;-75
2021/09/12 06:26:50;;;;;;;;;;;;;;;;;;2102614;28;4029;-75
2021/09/12 06:27:51;;;;;;;;;;;;;;;;;;2103154;28;2288;-75
2021/09/12 06:28:53;;;;;;;;;;;;;;;;;;2103717;28;2651;-75
2021/09/12 06:29:53;;;;;;;;;;;;;;;;;;2101653;28;3934;-75
2021/09/12 06:30:54;;;;;;;;;;;;;;;;;;2102710;27;4259;-75
2021/09/12 06:31:54;;;;;;;;;;;;;;;;;;2104032;28;2802;-75
2021/09/12 06:32:55;;;;;;;;;;;;;;;;;;2104173;28;1110;-75
2021/09/12 06:33:55;;;;;;;;;;;;;;;;;;2104288;28;1672;-75
2021/09/12 06:34:56;;;;;;;;;;;;;;;;;;2099589;28;4722;-75
2021/09/12 06:35:56;;;;;;;;;;;;;;;;;;2097660;28;3394;-75
2021/09/12 06:36:58;;;;;;;;;;;;;;;;;;2098507;28;4117;-75
2021/09/12 06:37:58;;;;;;;;;;;;;;;;;;2104689;28;3551;-75
2021/09/12 06:38:59;;;;;;;;;;;;;;;;;;2103702;28;2455;-75
2021/09/12 06:39:59;;;;;;;;;;;;;;;;;;2105139;28;1077;-75
2021/09/12 06:41:01;;;;;;;;;;;;;;;;;;2103429;28;2784;-75
2021/09/12 06:42:02;;;;;;;;;;;;;;;;;;2103857;28;3265;-75
2021/09/12 06:43:02;;;;;;;;;;;;;;;;;;2104574;28;2549;-75
2021/09/12 06:44:03;;;;;;;;;;;;;;;;;;2104701;28;1018;-75
2021/09/12 06:45:03;;;;;;;;;;;;;;;;;;2103085;28;2864;-75
2021/09/12 06:46:04;;;;;;;;;;;;;;;;;;2103398;28;3612;-75
2021/09/12 06:47:04;;;;;;;;;;;;;;;;;;2103748;28;3564;-75
2021/09/12 06:48:05;;;;;;;;;;;;;;;;;;2105725;27;1375;-75
2021/09/12 06:49:06;;;;;;;;;;;;;;;;;;2103096;28;2978;-75
2021/09/12 06:50:07;;;;;;;;;;;;;;;;;;2103405;28;2936;-75
2021/09/12 06:51:07;;;;;;;;;;;;;;;;;;2099403;28;5026;-75
2021/09/12 06:52:08;;;;;;;;;;;;;;;;;;2103128;28;3276;-75
2021/09/12 06:53:08;;;;;;;;;;;;;;;;;;2102759;28;4256;-75
2021/09/12 06:54:09;;;;;;;;;;;;;;;;;;2102409;28;4213;-75
2021/09/12 06:55:09;;;;;;;;;;;;;;;;;;2101824;28;4696;-75
2021/09/12 06:56:10;;;;;;;;;;;;;;;;;;2101393;28;2695;-75
2021/09/12 06:57:10;;;;;;;;;;;;;;;;;;2104594;28;4135;-75
2021/09/12 06:58:12;;;;;;;;;;;;;;;;;;2102730;28;3897;-75
2021/09/12 06:59:12;;;;;;;;;;;;;;;;;;2104033;28;3409;-75
2021/09/12 07:00:13;;;;;;;;;;;;;;;;;;2103155;28;3166;-75
2021/09/12 07:01:13;;;;;;;;;;;;;;;;;;2100976;28;4158;-75
2021/09/12 07:02:14;;;;;;;;;;;;;;;;;;2098631;28;3308;-75
2021/09/12 07:03:14;;;;;;;;;;;;;;;;;;2101938;28;3427;-75